Flight Track Log - Related Links

Times and Time Zones

All times are in EDT time to prevent confusion due to time zone crossing. See the KAP720 flight status page for this flight to view local times or setup timezone preferences in your user account.

Time Position Orientation Groundspeed Altitude Reporting Facility
EDT Latitude Longitude Course Direction KTS MPH feet Rate Location/Type
Thu 09:00:57 AM 42.3500 -71.0167 236° Southwest 112 129 800  Level KA90
Thu 09:01:54 AM 42.3333 -71.0500 236° Southwest 112 129 1,600 615 Climbing KA90
Thu 09:02:54 AM 42.3000 -71.0333 160° South 144 166 2,000 500 Climbing KA90
Thu 09:03:54 AM 42.2500 -71.0167 166° South 141 162 2,600 500 Climbing KA90
Thu 09:04:54 AM 42.2167 -70.9833 143° Southeast 161 185 3,000 350 Climbing KA90
Thu 09:05:54 AM 42.1833 -70.9333 132° Southeast 166 191 3,300 254 Climbing KA90
Thu 09:06:52 AM 42.1500 -70.9000 143° Southeast 183 211 3,500 105 Climbing KA90
Thu 09:07:48 AM 42.1000 -70.8667 154° Southeast 192 221 3,500  Level KA90
Thu 09:08:54 AM 42.0667 -70.8167 132° Southeast 181 208 3,500  Level KA90
Thu 09:09:54 AM 42.0167 -70.7833 154° Southeast 182 209 3,500  Level KA90
Thu 09:11:00 AM 41.9791 -70.7473 144° Southeast  Level Estimated
Thu 09:18:00 AM 41.7398 -70.5187 144° Southeast  Level Estimated
Thu 09:19:00 AM 41.7056 -70.4862 145° Southeast  Level Estimated
Thu 09:20:00 AM 41.6713 -70.4537 145° Southeast  Level Estimated
Thu 09:21:00 AM 41.6371 -70.4212 145° Southeast  Level Estimated
Thu 09:22:00 AM 41.6029 -70.3888 145° Southeast  Level Estimated
Thu 09:23:00 AM 41.5686 -70.3564 145° Southeast  Level Estimated
Thu 09:24:00 AM 41.5343 -70.3241 145° Southeast  Level Estimated
Thu 09:25:00 AM 41.5000 -70.2918 145° Southeast  Level Estimated
Thu 09:26:00 AM 41.4658 -70.2595 145° Southeast  Level Estimated
Thu 09:27:00 AM 41.4314 -70.2273 145° Southeast  Level Estimated
Thu 09:28:00 AM 41.3971 -70.1951 145° Southeast  Level Estimated
Thu 09:29:00 AM 41.3628 -70.1629 145° Southeast  Level Estimated
Thu 09:30:00 AM 41.3285 -70.1308 145° Southeast  Level Estimated
Thu 09:31:00 AM 41.2942 -70.0987 145° Southeast  Level Estimated
Thu 09:32:00 AM 41.2598 -70.0666 145° Southeast  Level Estimated
Thu 09:33:00 AM 41.2531 -70.0603 145° Southeast  Level Estimated
Thu 09:34:00 AM 41.2531 -70.0603 72° East  Level Estimated
Thu 09:35:00 AM 41.2531 -70.0603 72° East  Level Estimated
Thu 09:36:00 AM 41.2531 -70.0603 72° East  Level Estimated
Thu 09:37:00 AM 41.2531 -70.0603 72° East  Level Estimated
Thu 09:38:00 AM 41.2531 -70.0603 72° East  Level Estimated
Thu 09:39:00 AM 41.2531 -70.0603 72° East  Level Estimated
Thu 09:40:00 AM 41.2531 -70.0603 72° East  Level Estimated
Thu 09:41:00 AM 41.2531 -70.0603 72° East  Level Estimated
Thu 09:42:00 AM 41.2531 -70.0603 72° East  Level Estimated
Thu 09:43:00 AM 41.2531 -70.0603 72° East  Level Estimated
Thu 09:44:00 AM 41.2531 -70.0603 72° East  Level Estimated
Thu 09:45:00 AM 41.2531 -70.0603 72° East  Level Estimated
Thu 09:46:00 AM 41.2531 -70.0603 72° East  Level Estimated
Thu 09:47:00 AM 41.2531 -70.0603 72° East  Level Estimated
Thu 09:48:00 AM 41.2531 -70.0603 72° East  Level Estimated
Thu 09:49:00 AM 41.2531 -70.0603 72° East  Level Estimated
Thu 09:50:00 AM 41.2531 -70.0603 72° East  Level Estimated
Thu 09:51:00 AM 41.2531 -70.0603 72° East  Level Estimated
Thu 09:52:00 AM 41.2531 -70.0603 72° East  Level Estimated
Thu 09:53:00 AM 41.2531 -70.0603 72° East  Level Estimated
Thu 09:54:00 AM 41.2531 -70.0603 72° East  Level Estimated

Login

Don't have an account? Register now (free) for customized features, flight alerts, and more!